Huvudsida
METAR-TAF:

METAR-TAF

Flygplatser :

Nakashibetsu, Japan

latitud: 43-34N, longitud: 144-58E, höjd: 66 m

Aktuellt väderrapport

Denna rapport gjordes för 33 minuter sedan, klockan 04:00 UTC
Vind 9 kt från syd
Temperatur 31°C
Fuktighet 63%
Tryck 998 hPa
Sikt 10 km eller mer
Få moln på en höjd av 2500 ft
Brutna moln på en höjd av 5000 ft
Brutna moln

METAR: RJCN 230400Z 18009KT 9999 FEW025 BKN050 BKN/// 31/23 Q0998

Tid: 13:33 (04:33 UTC)


TAF: saknas

Aktuella väderrapporter och prognoser från 4000 flygplatser (METAR- och TAF-rapporter).

De tillgängliga stationerna syns som gula och röda prickar på kartan.

För musen över prickarna för att se namnen på stationerna.

Klicka sedan för att få väderrapporter och prognoser.

För att ändra kartan: Klicka på de gröna knapparna med ett svart kors på för att zooma in; den gröna knappen med ett streck på för att zooma ut; eller på de gröna pilarna för angränsande kartor.


METAR-TAF: